sensor_id;sensor_type;location;lat;lon;timestamp;temperature;humidity
62339;DHT22;48368;53.406;6.214;2022-10-15T00:00:43;12.40;99.90
62339;DHT22;48368;53.406;6.214;2022-10-15T00:03:09;12.40;99.90
62339;DHT22;48368;53.406;6.214;2022-10-15T00:05:39;12.40;99.90
62339;DHT22;48368;53.406;6.214;2022-10-15T00:08:05;12.40;99.90
62339;DHT22;48368;53.406;6.214;2022-10-15T00:10:32;12.40;99.90
62339;DHT22;48368;53.406;6.214;2022-10-15T00:12:57;12.40;99.90
62339;DHT22;48368;53.406;6.214;2022-10-15T00:15:23;12.40;99.90
62339;DHT22;48368;53.406;6.214;2022-10-15T00:17:49;12.40;99.90
62339;DHT22;48368;53.406;6.214;2022-10-15T00:20:15;12.40;99.90
62339;DHT22;48368;53.406;6.214;2022-10-15T00:22:40;12.40;99.90
62339;DHT22;48368;53.406;6.214;2022-10-15T00:25:08;12.40;99.90
62339;DHT22;48368;53.406;6.214;2022-10-15T00:27:34;12.40;99.90
62339;DHT22;48368;53.406;6.214;2022-10-15T00:30:01;12.40;99.90
62339;DHT22;48368;53.406;6.214;2022-10-15T00:32:28;12.40;99.90
62339;DHT22;48368;53.406;6.214;2022-10-15T00:34:54;12.40;99.90
62339;DHT22;48368;53.406;6.214;2022-10-15T00:37:20;12.40;99.90
62339;DHT22;48368;53.406;6.214;2022-10-15T00:39:46;12.40;99.90
62339;DHT22;48368;53.406;6.214;2022-10-15T00:42:11;12.40;99.90
62339;DHT22;48368;53.406;6.214;2022-10-15T00:45:11;12.40;99.90
62339;DHT22;48368;53.406;6.214;2022-10-15T00:47:48;12.40;99.90
62339;DHT22;48368;53.406;6.214;2022-10-15T00:53:49;12.40;99.90
62339;DHT22;48368;53.406;6.214;2022-10-15T01:09:15;12.40;99.90
62339;DHT22;48368;53.406;6.214;2022-10-15T01:11:56;12.30;99.90
62339;DHT22;48368;53.406;6.214;2022-10-15T01:33:55;12.40;99.90
62339;DHT22;48368;53.406;6.214;2022-10-15T01:36:49;12.40;99.90
62339;DHT22;48368;53.406;6.214;2022-10-15T01:39:33;12.40;99.90
62339;DHT22;48368;53.406;6.214;2022-10-15T01:42:14;12.50;99.90
62339;DHT22;48368;53.406;6.214;2022-10-15T01:44:51;12.40;99.90
62339;DHT22;48368;53.406;6.214;2022-10-15T01:47:30;12.40;99.90
62339;DHT22;48368;53.406;6.214;2022-10-15T01:49:59;12.40;99.90
62339;DHT22;48368;53.406;6.214;2022-10-15T01:52:29;12.40;99.90
62339;DHT22;48368;53.406;6.214;2022-10-15T01:54:57;12.40;99.90
62339;DHT22;48368;53.406;6.214;2022-10-15T01:57:25;12.40;99.90
62339;DHT22;48368;53.406;6.214;2022-10-15T01:59:51;12.40;99.90
62339;DHT22;48368;53.406;6.214;2022-10-15T02:02:18;12.40;99.90
62339;DHT22;48368;53.406;6.214;2022-10-15T02:04:44;12.40;99.90
62339;DHT22;48368;53.406;6.214;2022-10-15T02:07:46;12.40;99.90
62339;DHT22;48368;53.406;6.214;2022-10-15T02:10:35;12.40;99.90
62339;DHT22;48368;53.406;6.214;2022-10-15T02:16:01;12.40;99.90
62339;DHT22;48368;53.406;6.214;2022-10-15T02:18:37;12.40;99.90
62339;DHT22;48368;53.406;6.214;2022-10-15T02:21:13;12.40;99.90
62339;DHT22;48368;53.406;6.214;2022-10-15T02:24:01;12.40;99.90
62339;DHT22;48368;53.406;6.214;2022-10-15T02:26:29;12.40;99.90
62339;DHT22;48368;53.406;6.214;2022-10-15T02:28:57;12.40;99.90
62339;DHT22;48368;53.406;6.214;2022-10-15T02:31:25;12.40;99.90
62339;DHT22;48368;53.406;6.214;2022-10-15T02:33:55;12.40;99.90
62339;DHT22;48368;53.406;6.214;2022-10-15T02:36:22;12.40;99.90
62339;DHT22;48368;53.406;6.214;2022-10-15T02:38:50;12.40;99.90
62339;DHT22;48368;53.406;6.214;2022-10-15T02:41:16;12.40;99.90
62339;DHT22;48368;53.406;6.214;2022-10-15T02:43:42;12.40;99.90
62339;DHT22;48368;53.406;6.214;2022-10-15T02:46:10;12.40;99.90
62339;DHT22;48368;53.406;6.214;2022-10-15T02:56:02;12.40;99.90
62339;DHT22;48368;53.406;6.214;2022-10-15T03:02:11;12.40;99.90
62339;DHT22;48368;53.406;6.214;2022-10-15T03:04:37;12.40;99.90
62339;DHT22;48368;53.406;6.214;2022-10-15T03:07:03;12.40;99.90
62339;DHT22;48368;53.406;6.214;2022-10-15T03:09:29;12.40;99.90
62339;DHT22;48368;53.406;6.214;2022-10-15T03:11:54;12.40;99.90
62339;DHT22;48368;53.406;6.214;2022-10-15T03:14:20;12.40;99.90
62339;DHT22;48368;53.406;6.214;2022-10-15T03:16:46;12.40;99.90
62339;DHT22;48368;53.406;6.214;2022-10-15T03:19:11;12.40;99.90
62339;DHT22;48368;53.406;6.214;2022-10-15T03:21:37;12.50;99.90
62339;DHT22;48368;53.406;6.214;2022-10-15T03:24:02;12.50;99.90
62339;DHT22;48368;53.406;6.214;2022-10-15T03:26:28;12.50;99.90
62339;DHT22;48368;53.406;6.214;2022-10-15T03:28:54;12.50;99.90
62339;DHT22;48368;53.406;6.214;2022-10-15T03:31:20;12.40;99.90
62339;DHT22;48368;53.406;6.214;2022-10-15T03:33:46;12.50;99.90
62339;DHT22;48368;53.406;6.214;2022-10-15T03:36:11;12.50;99.90
62339;DHT22;48368;53.406;6.214;2022-10-15T03:38:37;12.40;99.90
62339;DHT22;48368;53.406;6.214;2022-10-15T03:41:03;12.50;99.90
62339;DHT22;48368;53.406;6.214;2022-10-15T03:43:28;12.50;99.90
62339;DHT22;48368;53.406;6.214;2022-10-15T03:45:54;12.50;99.90
62339;DHT22;48368;53.406;6.214;2022-10-15T03:48:19;12.50;99.90
62339;DHT22;48368;53.406;6.214;2022-10-15T03:50:45;12.50;99.90
62339;DHT22;48368;53.406;6.214;2022-10-15T03:53:11;12.50;99.90
62339;DHT22;48368;53.406;6.214;2022-10-15T03:55:37;12.50;99.90
62339;DHT22;48368;53.406;6.214;2022-10-15T03:58:02;12.50;99.90
62339;DHT22;48368;53.406;6.214;2022-10-15T04:00:28;12.50;99.90
62339;DHT22;48368;53.406;6.214;2022-10-15T04:02:54;12.50;99.90
62339;DHT22;48368;53.406;6.214;2022-10-15T04:05:20;12.50;99.90
62339;DHT22;48368;53.406;6.214;2022-10-15T04:07:45;12.50;99.90
62339;DHT22;48368;53.406;6.214;2022-10-15T04:10:11;12.50;99.90
62339;DHT22;48368;53.406;6.214;2022-10-15T04:12:37;12.50;99.90
62339;DHT22;48368;53.406;6.214;2022-10-15T04:15:04;12.40;99.90
62339;DHT22;48368;53.406;6.214;2022-10-15T04:17:30;12.50;99.90
62339;DHT22;48368;53.406;6.214;2022-10-15T04:19:55;12.50;99.90
62339;DHT22;48368;53.406;6.214;2022-10-15T04:22:21;12.40;99.90
62339;DHT22;48368;53.406;6.214;2022-10-15T04:24:46;12.40;99.90
62339;DHT22;48368;53.406;6.214;2022-10-15T04:27:12;12.40;99.90
62339;DHT22;48368;53.406;6.214;2022-10-15T04:29:38;12.40;99.90
62339;DHT22;48368;53.406;6.214;2022-10-15T04:32:05;12.40;99.90
62339;DHT22;48368;53.406;6.214;2022-10-15T04:34:31;12.50;99.90
62339;DHT22;48368;53.406;6.214;2022-10-15T04:36:57;12.40;99.90
62339;DHT22;48368;53.406;6.214;2022-10-15T04:39:22;12.40;99.90
62339;DHT22;48368;53.406;6.214;2022-10-15T04:41:48;12.50;99.90
62339;DHT22;48368;53.406;6.214;2022-10-15T04:44:13;12.50;99.90
62339;DHT22;48368;53.406;6.214;2022-10-15T04:46:39;12.40;99.90
62339;DHT22;48368;53.406;6.214;2022-10-15T04:49:05;12.40;99.90
62339;DHT22;48368;53.406;6.214;2022-10-15T04:51:30;12.40;99.90
62339;DHT22;48368;53.406;6.214;2022-10-15T04:53:56;12.30;99.90
62339;DHT22;48368;53.406;6.214;2022-10-15T04:56:22;12.40;99.90
62339;DHT22;48368;53.406;6.214;2022-10-15T04:58:48;12.30;99.90
62339;DHT22;48368;53.406;6.214;2022-10-15T05:01:17;12.30;99.90
62339;DHT22;48368;53.406;6.214;2022-10-15T05:03:45;12.20;99.90
62339;DHT22;48368;53.406;6.214;2022-10-15T05:06:28;12.20;99.90
62339;DHT22;48368;53.406;6.214;2022-10-15T05:08:56;12.20;99.90
62339;DHT22;48368;53.406;6.214;2022-10-15T05:11:24;12.10;99.90
62339;DHT22;48368;53.406;6.214;2022-10-15T05:13:50;12.10;99.90
62339;DHT22;48368;53.406;6.214;2022-10-15T05:16:18;12.10;99.90
62339;DHT22;48368;53.406;6.214;2022-10-15T05:18:46;12.10;99.90
62339;DHT22;48368;53.406;6.214;2022-10-15T05:21:13;12.20;99.90
62339;DHT22;48368;53.406;6.214;2022-10-15T05:23:38;12.10;99.90
62339;DHT22;48368;53.406;6.214;2022-10-15T05:26:11;12.20;99.90
62339;DHT22;48368;53.406;6.214;2022-10-15T05:28:37;12.20;99.90
62339;DHT22;48368;53.406;6.214;2022-10-15T05:31:08;12.10;99.90
62339;DHT22;48368;53.406;6.214;2022-10-15T05:33:34;12.10;99.90
62339;DHT22;48368;53.406;6.214;2022-10-15T05:38:46;12.20;99.90
62339;DHT22;48368;53.406;6.214;2022-10-15T05:41:12;12.10;99.90
62339;DHT22;48368;53.406;6.214;2022-10-15T05:43:37;12.10;99.90
62339;DHT22;48368;53.406;6.214;2022-10-15T05:46:03;12.10;99.90
62339;DHT22;48368;53.406;6.214;2022-10-15T05:48:29;12.10;99.90
62339;DHT22;48368;53.406;6.214;2022-10-15T05:51:05;12.10;99.90
62339;DHT22;48368;53.406;6.214;2022-10-15T05:53:31;12.10;99.90
62339;DHT22;48368;53.406;6.214;2022-10-15T05:55:57;12.20;99.90
62339;DHT22;48368;53.406;6.214;2022-10-15T05:58:27;12.20;99.90
62339;DHT22;48368;53.406;6.214;2022-10-15T06:00:54;12.20;99.90
62339;DHT22;48368;53.406;6.214;2022-10-15T06:03:19;12.20;99.90
62339;DHT22;48368;53.406;6.214;2022-10-15T06:05:45;12.20;99.90
62339;DHT22;48368;53.406;6.214;2022-10-15T06:08:11;12.20;99.90
62339;DHT22;48368;53.406;6.214;2022-10-15T06:10:36;12.20;99.90
62339;DHT22;48368;53.406;6.214;2022-10-15T06:13:03;12.20;99.90
62339;DHT22;48368;53.406;6.214;2022-10-15T06:15:29;12.20;99.90
62339;DHT22;48368;53.406;6.214;2022-10-15T06:17:55;12.20;99.90
62339;DHT22;48368;53.406;6.214;2022-10-15T06:20:20;12.20;99.90
62339;DHT22;48368;53.406;6.214;2022-10-15T06:22:46;12.20;99.90
62339;DHT22;48368;53.406;6.214;2022-10-15T06:25:12;12.30;99.90
62339;DHT22;48368;53.406;6.214;2022-10-15T06:27:38;12.20;99.90
62339;DHT22;48368;53.406;6.214;2022-10-15T06:30:04;12.30;99.90
62339;DHT22;48368;53.406;6.214;2022-10-15T06:32:30;12.30;99.90
62339;DHT22;48368;53.406;6.214;2022-10-15T06:34:56;12.30;99.90
62339;DHT22;48368;53.406;6.214;2022-10-15T06:37:21;12.20;99.90
62339;DHT22;48368;53.406;6.214;2022-10-15T06:39:47;12.30;99.90
62339;DHT22;48368;53.406;6.214;2022-10-15T06:42:13;12.30;99.90
62339;DHT22;48368;53.406;6.214;2022-10-15T06:44:39;12.30;99.90
62339;DHT22;48368;53.406;6.214;2022-10-15T06:47:05;12.30;99.90
62339;DHT22;48368;53.406;6.214;2022-10-15T06:49:31;12.30;99.90
62339;DHT22;48368;53.406;6.214;2022-10-15T06:51:57;12.20;99.90
62339;DHT22;48368;53.406;6.214;2022-10-15T06:54:23;12.30;99.90
62339;DHT22;48368;53.406;6.214;2022-10-15T06:56:50;12.30;99.90
62339;DHT22;48368;53.406;6.214;2022-10-15T06:59:15;12.30;99.90
62339;DHT22;48368;53.406;6.214;2022-10-15T07:01:41;12.30;99.90
62339;DHT22;48368;53.406;6.214;2022-10-15T07:04:07;12.30;99.90
62339;DHT22;48368;53.406;6.214;2022-10-15T07:06:35;12.20;99.90
62339;DHT22;48368;53.406;6.214;2022-10-15T07:09:02;12.20;99.90
62339;DHT22;48368;53.406;6.214;2022-10-15T07:11:28;12.30;99.90
62339;DHT22;48368;53.406;6.214;2022-10-15T07:13:53;12.30;99.90
62339;DHT22;48368;53.406;6.214;2022-10-15T07:16:19;12.30;99.90
62339;DHT22;48368;53.406;6.214;2022-10-15T07:18:47;12.30;99.90
62339;DHT22;48368;53.406;6.214;2022-10-15T07:21:13;12.30;99.90
62339;DHT22;48368;53.406;6.214;2022-10-15T07:23:38;12.40;99.90
62339;DHT22;48368;53.406;6.214;2022-10-15T07:26:04;12.40;99.90
62339;DHT22;48368;53.406;6.214;2022-10-15T07:28:30;12.50;99.90
62339;DHT22;48368;53.406;6.214;2022-10-15T07:31:00;12.50;99.90
62339;DHT22;48368;53.406;6.214;2022-10-15T07:33:26;12.60;99.90
62339;DHT22;48368;53.406;6.214;2022-10-15T07:35:52;12.50;99.90
62339;DHT22;48368;53.406;6.214;2022-10-15T07:38:18;12.60;99.90
62339;DHT22;48368;53.406;6.214;2022-10-15T07:40:43;12.50;99.90
62339;DHT22;48368;53.406;6.214;2022-10-15T07:43:09;12.50;99.90
62339;DHT22;48368;53.406;6.214;2022-10-15T07:45:35;12.50;99.90
62339;DHT22;48368;53.406;6.214;2022-10-15T07:48:00;12.50;99.90
62339;DHT22;48368;53.406;6.214;2022-10-15T07:50:26;12.50;99.90
62339;DHT22;48368;53.406;6.214;2022-10-15T07:52:52;12.50;99.90
62339;DHT22;48368;53.406;6.214;2022-10-15T07:55:18;12.50;99.90
62339;DHT22;48368;53.406;6.214;2022-10-15T07:57:43;12.50;99.90
62339;DHT22;48368;53.406;6.214;2022-10-15T08:00:09;12.50;99.90
62339;DHT22;48368;53.406;6.214;2022-10-15T08:02:35;12.50;99.90
62339;DHT22;48368;53.406;6.214;2022-10-15T08:05:01;12.60;99.90
62339;DHT22;48368;53.406;6.214;2022-10-15T08:07:26;12.60;99.90
62339;DHT22;48368;53.406;6.214;2022-10-15T08:09:52;12.60;99.90
62339;DHT22;48368;53.406;6.214;2022-10-15T08:12:18;12.70;99.90
62339;DHT22;48368;53.406;6.214;2022-10-15T08:14:43;12.70;99.90
62339;DHT22;48368;53.406;6.214;2022-10-15T08:17:09;12.70;99.90
62339;DHT22;48368;53.406;6.214;2022-10-15T08:19:35;12.70;99.90
62339;DHT22;48368;53.406;6.214;2022-10-15T08:22:00;12.70;99.90
62339;DHT22;48368;53.406;6.214;2022-10-15T08:28:07;12.80;99.90
62339;DHT22;48368;53.406;6.214;2022-10-15T08:30:37;12.80;99.90
62339;DHT22;48368;53.406;6.214;2022-10-15T08:33:02;12.80;99.90
62339;DHT22;48368;53.406;6.214;2022-10-15T08:35:28;12.80;99.90
62339;DHT22;48368;53.406;6.214;2022-10-15T08:37:54;12.90;99.90
62339;DHT22;48368;53.406;6.214;2022-10-15T08:40:21;12.90;99.90
62339;DHT22;48368;53.406;6.214;2022-10-15T08:42:47;12.90;99.90
62339;DHT22;48368;53.406;6.214;2022-10-15T08:45:28;12.90;99.90
62339;DHT22;48368;53.406;6.214;2022-10-15T08:47:59;13.00;99.90
62339;DHT22;48368;53.406;6.214;2022-10-15T08:50:49;13.00;99.90
62339;DHT22;48368;53.406;6.214;2022-10-15T08:53:20;13.10;99.90
62339;DHT22;48368;53.406;6.214;2022-10-15T08:55:48;13.00;99.90
62339;DHT22;48368;53.406;6.214;2022-10-15T08:58:28;13.00;99.90
62339;DHT22;48368;53.406;6.214;2022-10-15T09:01:26;13.00;99.90
62339;DHT22;48368;53.406;6.214;2022-10-15T09:09:51;13.00;99.90
62339;DHT22;48368;53.406;6.214;2022-10-15T09:15:17;13.00;99.90
62339;DHT22;48368;53.406;6.214;2022-10-15T09:17:47;13.10;99.90
62339;DHT22;48368;53.406;6.214;2022-10-15T09:20:27;13.00;99.90
62339;DHT22;48368;53.406;6.214;2022-10-15T09:22:54;13.10;99.90
62339;DHT22;48368;53.406;6.214;2022-10-15T09:25:23;13.20;99.90
62339;DHT22;48368;53.406;6.214;2022-10-15T09:28:05;13.20;99.90
62339;DHT22;48368;53.406;6.214;2022-10-15T09:30:51;13.20;99.90
62339;DHT22;48368;53.406;6.214;2022-10-15T09:42:38;13.20;99.90
62339;DHT22;48368;53.406;6.214;2022-10-15T09:49:16;13.20;99.90
62339;DHT22;48368;53.406;6.214;2022-10-15T09:52:03;13.30;99.90
62339;DHT22;48368;53.406;6.214;2022-10-15T09:56:57;13.30;99.90
62339;DHT22;48368;53.406;6.214;2022-10-15T09:59:24;13.40;99.90
62339;DHT22;48368;53.406;6.214;2022-10-15T10:01:57;13.30;99.90
62339;DHT22;48368;53.406;6.214;2022-10-15T10:04:26;13.50;99.90
62339;DHT22;48368;53.406;6.214;2022-10-15T10:06:54;13.40;99.90
62339;DHT22;48368;53.406;6.214;2022-10-15T10:09:23;13.40;99.90
62339;DHT22;48368;53.406;6.214;2022-10-15T10:14:27;13.50;99.90
62339;DHT22;48368;53.406;6.214;2022-10-15T10:17:26;13.40;99.90
62339;DHT22;48368;53.406;6.214;2022-10-15T10:20:20;13.40;99.90
62339;DHT22;48368;53.406;6.214;2022-10-15T10:22:48;13.50;99.90
62339;DHT22;48368;53.406;6.214;2022-10-15T10:25:39;13.40;99.90
62339;DHT22;48368;53.406;6.214;2022-10-15T10:35:56;13.60;99.90
62339;DHT22;48368;53.406;6.214;2022-10-15T10:38:43;13.50;99.90
62339;DHT22;48368;53.406;6.214;2022-10-15T10:41:18;13.60;99.90
62339;DHT22;48368;53.406;6.214;2022-10-15T10:43:54;13.60;99.90
62339;DHT22;48368;53.406;6.214;2022-10-15T10:46:21;13.60;99.90
62339;DHT22;48368;53.406;6.214;2022-10-15T10:48:52;13.60;99.90
62339;DHT22;48368;53.406;6.214;2022-10-15T10:53:50;13.70;99.90
62339;DHT22;48368;53.406;6.214;2022-10-15T10:56:27;13.70;99.90
62339;DHT22;48368;53.406;6.214;2022-10-15T10:59:00;13.80;99.90
62339;DHT22;48368;53.406;6.214;2022-10-15T11:01:27;13.70;99.90
62339;DHT22;48368;53.406;6.214;2022-10-15T11:07:57;13.80;99.90
62339;DHT22;48368;53.406;6.214;2022-10-15T11:10:29;13.80;99.90
62339;DHT22;48368;53.406;6.214;2022-10-15T11:13:37;13.70;99.90
62339;DHT22;48368;53.406;6.214;2022-10-15T11:16:14;13.70;99.90
62339;DHT22;48368;53.406;6.214;2022-10-15T11:18:53;13.80;99.90
62339;DHT22;48368;53.406;6.214;2022-10-15T11:21:42;13.70;99.90
62339;DHT22;48368;53.406;6.214;2022-10-15T11:24:15;13.80;99.90
62339;DHT22;48368;53.406;6.214;2022-10-15T11:26:58;13.90;99.90
62339;DHT22;48368;53.406;6.214;2022-10-15T11:37:47;13.90;99.90
62339;DHT22;48368;53.406;6.214;2022-10-15T11:42:59;14.10;99.90
62339;DHT22;48368;53.406;6.214;2022-10-15T11:52:11;14.30;99.90
62339;DHT22;48368;53.406;6.214;2022-10-15T11:54:46;14.30;99.90
62339;DHT22;48368;53.406;6.214;2022-10-15T11:57:16;14.40;99.90
62339;DHT22;48368;53.406;6.214;2022-10-15T11:59:51;14.40;99.90
62339;DHT22;48368;53.406;6.214;2022-10-15T12:02:32;14.40;99.90
62339;DHT22;48368;53.406;6.214;2022-10-15T12:05:05;14.50;99.90
62339;DHT22;48368;53.406;6.214;2022-10-15T12:07:40;14.50;99.90
62339;DHT22;48368;53.406;6.214;2022-10-15T12:13:14;14.60;99.90
62339;DHT22;48368;53.406;6.214;2022-10-15T12:21:31;14.70;99.90
62339;DHT22;48368;53.406;6.214;2022-10-15T12:23:58;14.80;99.90
62339;DHT22;48368;53.406;6.214;2022-10-15T12:28:52;15.10;99.90
62339;DHT22;48368;53.406;6.214;2022-10-15T12:31:18;15.10;99.90
62339;DHT22;48368;53.406;6.214;2022-10-15T12:36:29;15.20;99.90
62339;DHT22;48368;53.406;6.214;2022-10-15T12:39:02;15.20;99.90
62339;DHT22;48368;53.406;6.214;2022-10-15T12:45:21;15.20;99.90
62339;DHT22;48368;53.406;6.214;2022-10-15T12:48:11;15.30;99.90
62339;DHT22;48368;53.406;6.214;2022-10-15T12:50:37;15.30;99.90
62339;DHT22;48368;53.406;6.214;2022-10-15T12:58:35;15.40;99.90
62339;DHT22;48368;53.406;6.214;2022-10-15T13:01:26;15.40;99.90
62339;DHT22;48368;53.406;6.214;2022-10-15T13:03:57;15.40;99.90
62339;DHT22;48368;53.406;6.214;2022-10-15T13:06:32;15.40;99.90
62339;DHT22;48368;53.406;6.214;2022-10-15T13:11:34;15.40;99.90
62339;DHT22;48368;53.406;6.214;2022-10-15T13:16:44;15.40;99.90
62339;DHT22;48368;53.406;6.214;2022-10-15T13:19:40;15.40;99.90
62339;DHT22;48368;53.406;6.214;2022-10-15T13:22:22;15.40;99.90
62339;DHT22;48368;53.406;6.214;2022-10-15T13:24:48;15.30;99.90
62339;DHT22;48368;53.406;6.214;2022-10-15T13:27:29;15.20;99.90
62339;DHT22;48368;53.406;6.214;2022-10-15T13:32:59;15.20;99.90
62339;DHT22;48368;53.406;6.214;2022-10-15T13:35:30;15.10;99.90
62339;DHT22;48368;53.406;6.214;2022-10-15T13:37:58;15.00;99.90
62339;DHT22;48368;53.406;6.214;2022-10-15T13:40:27;14.90;99.90
62339;DHT22;48368;53.406;6.214;2022-10-15T13:43:00;14.90;99.90
62339;DHT22;48368;53.406;6.214;2022-10-15T13:45:26;14.80;99.90
62339;DHT22;48368;53.406;6.214;2022-10-15T13:47:53;14.90;99.90
62339;DHT22;48368;53.406;6.214;2022-10-15T13:50:22;14.80;99.90
62339;DHT22;48368;53.406;6.214;2022-10-15T13:55:26;14.90;99.90
62339;DHT22;48368;53.406;6.214;2022-10-15T13:58:34;14.80;99.90
62339;DHT22;48368;53.406;6.214;2022-10-15T14:01:16;14.70;99.90
62339;DHT22;48368;53.406;6.214;2022-10-15T14:03:59;14.70;99.90
62339;DHT22;48368;53.406;6.214;2022-10-15T14:09:13;14.60;99.90
62339;DHT22;48368;53.406;6.214;2022-10-15T14:11:39;14.60;99.90
62339;DHT22;48368;53.406;6.214;2022-10-15T14:14:41;14.70;99.90
62339;DHT22;48368;53.406;6.214;2022-10-15T14:17:23;14.60;99.90
62339;DHT22;48368;53.406;6.214;2022-10-15T14:20:02;14.50;99.90
62339;DHT22;48368;53.406;6.214;2022-10-15T14:22:29;14.50;99.90
62339;DHT22;48368;53.406;6.214;2022-10-15T14:24:55;14.60;99.90
62339;DHT22;48368;53.406;6.214;2022-10-15T14:27:21;14.50;99.90
62339;DHT22;48368;53.406;6.214;2022-10-15T14:29:58;14.60;99.90
62339;DHT22;48368;53.406;6.214;2022-10-15T14:32:41;14.60;99.90
62339;DHT22;48368;53.406;6.214;2022-10-15T14:37:58;14.60;99.90
62339;DHT22;48368;53.406;6.214;2022-10-15T14:40:25;14.50;99.90
62339;DHT22;48368;53.406;6.214;2022-10-15T14:43:14;14.60;99.90
62339;DHT22;48368;53.406;6.214;2022-10-15T14:48:21;14.70;99.90
62339;DHT22;48368;53.406;6.214;2022-10-15T14:50:48;14.70;99.90
62339;DHT22;48368;53.406;6.214;2022-10-15T14:53:17;14.70;99.90
62339;DHT22;48368;53.406;6.214;2022-10-15T14:55:55;14.60;99.90
62339;DHT22;48368;53.406;6.214;2022-10-15T14:58:22;14.60;99.90
62339;DHT22;48368;53.406;6.214;2022-10-15T15:04:41;14.60;99.90
62339;DHT22;48368;53.406;6.214;2022-10-15T15:07:16;14.70;99.90
62339;DHT22;48368;53.406;6.214;2022-10-15T15:09:46;14.70;99.90
62339;DHT22;48368;53.406;6.214;2022-10-15T15:12:16;14.60;99.90
62339;DHT22;48368;53.406;6.214;2022-10-15T15:14:42;14.50;99.90
62339;DHT22;48368;53.406;6.214;2022-10-15T15:17:13;14.50;99.90
62339;DHT22;48368;53.406;6.214;2022-10-15T15:19:40;14.60;99.90
62339;DHT22;48368;53.406;6.214;2022-10-15T15:22:09;14.50;99.90
62339;DHT22;48368;53.406;6.214;2022-10-15T15:24:36;14.50;99.90
62339;DHT22;48368;53.406;6.214;2022-10-15T15:27:02;14.50;99.90
62339;DHT22;48368;53.406;6.214;2022-10-15T15:29:27;14.50;99.90
62339;DHT22;48368;53.406;6.214;2022-10-15T15:31:53;14.60;99.90
62339;DHT22;48368;53.406;6.214;2022-10-15T15:34:19;14.50;99.90
62339;DHT22;48368;53.406;6.214;2022-10-15T15:36:44;14.60;99.90
62339;DHT22;48368;53.406;6.214;2022-10-15T15:39:10;14.60;99.90
62339;DHT22;48368;53.406;6.214;2022-10-15T15:41:36;14.60;99.90
62339;DHT22;48368;53.406;6.214;2022-10-15T15:44:01;14.60;99.90
62339;DHT22;48368;53.406;6.214;2022-10-15T15:46:29;14.70;99.90
62339;DHT22;48368;53.406;6.214;2022-10-15T15:48:54;14.60;99.90
62339;DHT22;48368;53.406;6.214;2022-10-15T15:51:27;14.70;99.90
62339;DHT22;48368;53.406;6.214;2022-10-15T15:53:54;14.70;99.90
62339;DHT22;48368;53.406;6.214;2022-10-15T15:56:20;14.60;99.90
62339;DHT22;48368;53.406;6.214;2022-10-15T15:58:47;14.60;99.90
62339;DHT22;48368;53.406;6.214;2022-10-15T16:01:15;14.60;99.90
62339;DHT22;48368;53.406;6.214;2022-10-15T16:03:41;14.60;99.90
62339;DHT22;48368;53.406;6.214;2022-10-15T16:06:07;14.50;99.90
62339;DHT22;48368;53.406;6.214;2022-10-15T16:08:34;14.50;99.90
62339;DHT22;48368;53.406;6.214;2022-10-15T16:11:03;14.50;99.90
62339;DHT22;48368;53.406;6.214;2022-10-15T16:13:29;14.40;99.90
62339;DHT22;48368;53.406;6.214;2022-10-15T16:15:55;14.50;99.90
62339;DHT22;48368;53.406;6.214;2022-10-15T16:18:21;14.40;99.90
62339;DHT22;48368;53.406;6.214;2022-10-15T16:20:46;14.40;99.90
62339;DHT22;48368;53.406;6.214;2022-10-15T16:23:12;14.40;99.90
62339;DHT22;48368;53.406;6.214;2022-10-15T16:25:38;14.40;99.90
62339;DHT22;48368;53.406;6.214;2022-10-15T16:28:04;14.30;99.90
62339;DHT22;48368;53.406;6.214;2022-10-15T16:30:29;14.30;99.90
62339;DHT22;48368;53.406;6.214;2022-10-15T16:32:55;14.30;99.90
62339;DHT22;48368;53.406;6.214;2022-10-15T16:35:21;14.30;99.90
62339;DHT22;48368;53.406;6.214;2022-10-15T16:37:46;14.30;99.90
62339;DHT22;48368;53.406;6.214;2022-10-15T16:40:12;14.30;99.90
62339;DHT22;48368;53.406;6.214;2022-10-15T16:42:39;14.20;99.90
62339;DHT22;48368;53.406;6.214;2022-10-15T16:45:05;14.20;99.90
62339;DHT22;48368;53.406;6.214;2022-10-15T16:47:30;14.00;99.90
62339;DHT22;48368;53.406;6.214;2022-10-15T16:49:56;14.10;99.90
62339;DHT22;48368;53.406;6.214;2022-10-15T16:52:22;14.00;99.90
62339;DHT22;48368;53.406;6.214;2022-10-15T16:54:47;14.00;99.90
62339;DHT22;48368;53.406;6.214;2022-10-15T16:57:13;13.90;99.90
62339;DHT22;48368;53.406;6.214;2022-10-15T16:59:39;13.90;99.90
62339;DHT22;48368;53.406;6.214;2022-10-15T17:02:04;13.90;99.90
62339;DHT22;48368;53.406;6.214;2022-10-15T17:04:30;13.80;99.90
62339;DHT22;48368;53.406;6.214;2022-10-15T17:06:56;13.80;99.90
62339;DHT22;48368;53.406;6.214;2022-10-15T17:09:21;13.80;99.90
62339;DHT22;48368;53.406;6.214;2022-10-15T17:11:48;13.80;99.90
62339;DHT22;48368;53.406;6.214;2022-10-15T17:14:15;13.80;99.90
62339;DHT22;48368;53.406;6.214;2022-10-15T17:16:50;13.70;99.90
62339;DHT22;48368;53.406;6.214;2022-10-15T17:19:18;13.70;99.90
62339;DHT22;48368;53.406;6.214;2022-10-15T17:21:45;13.70;99.90
62339;DHT22;48368;53.406;6.214;2022-10-15T17:24:13;13.60;99.90
62339;DHT22;48368;53.406;6.214;2022-10-15T17:26:40;13.60;99.90
62339;DHT22;48368;53.406;6.214;2022-10-15T17:29:09;13.60;99.90
62339;DHT22;48368;53.406;6.214;2022-10-15T17:31:35;13.50;99.90
62339;DHT22;48368;53.406;6.214;2022-10-15T17:34:03;13.50;99.90
62339;DHT22;48368;53.406;6.214;2022-10-15T17:36:32;13.50;99.90
62339;DHT22;48368;53.406;6.214;2022-10-15T17:39:00;13.50;99.90
62339;DHT22;48368;53.406;6.214;2022-10-15T17:41:29;13.50;99.90
62339;DHT22;48368;53.406;6.214;2022-10-15T17:43:55;13.40;99.90
62339;DHT22;48368;53.406;6.214;2022-10-15T17:46:23;13.50;99.90
62339;DHT22;48368;53.406;6.214;2022-10-15T17:48:50;13.40;99.90
62339;DHT22;48368;53.406;6.214;2022-10-15T17:51:19;13.40;99.90
62339;DHT22;48368;53.406;6.214;2022-10-15T17:53:45;13.30;99.90
62339;DHT22;48368;53.406;6.214;2022-10-15T17:56:16;13.30;99.90
62339;DHT22;48368;53.406;6.214;2022-10-15T17:58:43;13.30;99.90
62339;DHT22;48368;53.406;6.214;2022-10-15T18:01:14;13.20;99.90
62339;DHT22;48368;53.406;6.214;2022-10-15T18:03:40;13.30;99.90
62339;DHT22;48368;53.406;6.214;2022-10-15T18:06:12;13.20;99.90
62339;DHT22;48368;53.406;6.214;2022-10-15T18:08:38;13.30;99.90
62339;DHT22;48368;53.406;6.214;2022-10-15T18:11:04;13.20;99.90
62339;DHT22;48368;53.406;6.214;2022-10-15T18:13:30;13.20;99.90
62339;DHT22;48368;53.406;6.214;2022-10-15T18:15:56;13.20;99.90
62339;DHT22;48368;53.406;6.214;2022-10-15T18:18:22;13.20;99.90
62339;DHT22;48368;53.406;6.214;2022-10-15T18:20:48;13.10;99.90
62339;DHT22;48368;53.406;6.214;2022-10-15T18:23:14;13.10;99.90
62339;DHT22;48368;53.406;6.214;2022-10-15T18:25:39;13.00;99.90